Time;durP1;ratioP1;P1;durP2;ratioP2;P2;SDS_P1;SDS_P2;PMS_P1;PMS_P2;Temp;Humidity;BMP_temperature;BMP_pressure;BME280_temperature;BME280_humidity;BME280_pressure;Samples;Min_cycle;Max_cycle;Signal;HPM_P1;HPM_P2
2022/12/29 00:01:09;;;;;;;22.63;12.60;;;;;;;;;;5093058;28;20096;-75
2022/12/29 00:03:55;;;;;;;26.05;11.73;;;;;;;;;;5092327;28;20425;-75
2022/12/29 00:06:41;;;;;;;23.52;11.98;;;;;;;;;;5078944;28;20012;-75
2022/12/29 00:09:26;;;;;;;23.83;12.20;;;;;;;;;;5093567;28;20046;-75
2022/12/29 00:12:12;;;;;;;20.17;11.25;;;;;;;;;;5079141;28;20016;-75
2022/12/29 00:18:02;;;;;;;19.20;11.20;;;;;;;;;;5092990;28;20016;-74
2022/12/29 00:35:07;;;;;;;18.13;9.82;;;;;;;;;;5093031;28;20085;-77
2022/12/29 00:36:39;;;;;;;19.92;10.23;;;;;;;;;;5093914;28;20445;-76
2022/12/29 00:45:32;;;;;;;18.60;11.02;;;;;;;;;;5092523;28;20102;-76
2022/12/29 00:51:22;;;;;;;20.40;11.32;;;;;;;;;;5093041;28;20414;-74
2022/12/29 00:54:08;;;;;;;20.27;11.60;;;;;;;;;;5093506;28;20430;-74
2022/12/29 00:56:54;;;;;;;21.90;11.50;;;;;;;;;;5092390;28;20020;-75
2022/12/29 00:59:40;;;;;;;17.38;10.88;;;;;;;;;;5094127;28;20372;-75
2022/12/29 01:02:26;;;;;;;22.42;12.05;;;;;;;;;;5078850;28;20063;-73
2022/12/29 01:05:12;;;;;;;19.48;10.68;;;;;;;;;;5092243;28;20031;-73
2022/12/29 01:07:57;;;;;;;20.83;11.27;;;;;;;;;;5093055;28;20027;-75
2022/12/29 01:10:43;;;;;;;21.35;11.63;;;;;;;;;;5079002;28;20024;-75
2022/12/29 01:13:30;;;;;;;20.25;11.30;;;;;;;;;;5092637;28;20051;-73
2022/12/29 01:16:15;;;;;;;19.08;11.57;;;;;;;;;;5080409;28;20020;-74
2022/12/29 01:19:01;;;;;;;19.10;10.32;;;;;;;;;;5081692;28;20073;-75
2022/12/29 01:21:47;;;;;;;19.83;11.05;;;;;;;;;;5095922;28;20016;-75
2022/12/29 01:24:32;;;;;;;19.38;11.10;;;;;;;;;;5082445;28;20050;-75
2022/12/29 01:27:18;;;;;;;21.13;11.60;;;;;;;;;;5095488;28;20343;-74
2022/12/29 01:30:04;;;;;;;20.63;10.85;;;;;;;;;;5095540;28;20020;-74
2022/12/29 01:32:49;;;;;;;18.05;10.30;;;;;;;;;;5081418;28;20031;-75
2022/12/29 01:35:35;;;;;;;16.90;10.13;;;;;;;;;;5095499;28;20103;-73
2022/12/29 01:38:20;;;;;;;17.25;10.80;;;;;;;;;;5095462;28;20027;-74
2022/12/29 01:41:07;;;;;;;19.27;10.80;;;;;;;;;;5095502;28;20106;-75
2022/12/29 01:43:54;;;;;;;15.43;9.52;;;;;;;;;;5095571;28;20027;-75
2022/12/29 01:46:46;;;;;;;20.58;9.93;;;;;;;;;;5081582;28;20020;-74
2022/12/29 01:49:32;;;;;;;16.95;9.82;;;;;;;;;;5096444;28;20095;-74
2022/12/29 01:52:18;;;;;;;15.50;9.50;;;;;;;;;;5095694;28;20017;-75
2022/12/29 01:55:04;;;;;;;15.68;9.85;;;;;;;;;;5095376;28;20027;-76
2022/12/29 01:57:51;;;;;;;19.40;10.45;;;;;;;;;;5081736;28;20416;-77
2022/12/29 02:00:37;;;;;;;21.85;12.45;;;;;;;;;;5081375;28;20020;-74
2022/12/29 02:03:24;;;;;;;16.63;10.43;;;;;;;;;;5095576;28;20032;-75
2022/12/29 02:06:39;;;;;;;19.65;10.77;;;;;;;;;;5082656;28;20012;-73
2022/12/29 02:09:24;;;;;;;17.63;10.15;;;;;;;;;;5088027;28;20040;-75
2022/12/29 02:12:10;;;;;;;19.10;10.63;;;;;;;;;;5080939;28;20038;-74
2022/12/29 02:14:58;;;;;;;16.50;10.13;;;;;;;;;;5095484;28;20454;-75
2022/12/29 02:17:53;;;;;;;16.73;9.90;;;;;;;;;;5095813;28;20028;-75
2022/12/29 02:21:08;;;;;;;16.75;10.85;;;;;;;;;;5096427;28;20035;-75
2022/12/29 02:24:12;;;;;;;24.25;11.13;;;;;;;;;;5081015;28;20023;-75
2022/12/29 02:27:12;;;;;;;20.58;11.15;;;;;;;;;;5095313;28;20012;-74
2022/12/29 02:30:01;;;;;;;20.33;11.43;;;;;;;;;;5081035;28;20378;-75
2022/12/29 02:32:47;;;;;;;21.95;11.23;;;;;;;;;;5080587;28;20024;-75
2022/12/29 02:35:32;;;;;;;18.70;10.90;;;;;;;;;;5094591;28;20016;-74
2022/12/29 02:38:37;;;;;;;20.48;11.13;;;;;;;;;;5094760;28;20020;-75
2022/12/29 02:41:26;;;;;;;20.88;11.20;;;;;;;;;;5094084;28;20016;-75
2022/12/29 02:44:16;;;;;;;21.33;11.40;;;;;;;;;;5094709;28;20110;-74
2022/12/29 02:47:25;;;;;;;19.65;11.82;;;;;;;;;;5095567;28;20020;-75
2022/12/29 02:50:13;;;;;;;19.13;10.73;;;;;;;;;;5062297;28;20496;-74
2022/12/29 02:53:01;;;;;;;19.65;11.50;;;;;;;;;;5094398;28;20169;-75
2022/12/29 02:55:48;;;;;;;20.80;11.85;;;;;;;;;;5080793;28;20024;-75
2022/12/29 02:58:33;;;;;;;19.38;12.50;;;;;;;;;;5080486;28;20031;-74
2022/12/29 03:01:21;;;;;;;21.35;12.32;;;;;;;;;;5094599;28;20435;-73
2022/12/29 03:04:30;;;;;;;18.08;11.40;;;;;;;;;;5080077;28;20031;-74
2022/12/29 03:07:23;;;;;;;19.33;10.75;;;;;;;;;;5094777;28;20347;-74
2022/12/29 03:10:19;;;;;;;19.05;10.98;;;;;;;;;;5095012;28;20020;-76
2022/12/29 03:16:42;;;;;;;23.42;12.77;;;;;;;;;;5094640;28;20411;-74
2022/12/29 03:19:30;;;;;;;17.98;11.40;;;;;;;;;;5079310;28;20092;-74
2022/12/29 03:22:27;;;;;;;19.80;11.70;;;;;;;;;;5081025;28;20056;-75
2022/12/29 03:25:16;;;;;;;21.40;11.60;;;;;;;;;;5095108;28;20016;-74
2022/12/29 03:28:05;;;;;;;22.65;12.88;;;;;;;;;;5094222;28;20306;-74
2022/12/29 03:30:51;;;;;;;23.83;13.65;;;;;;;;;;5094791;28;20124;-75
2022/12/29 03:33:37;;;;;;;24.90;12.45;;;;;;;;;;5094161;28;20031;-74
2022/12/29 03:36:26;;;;;;;19.98;12.27;;;;;;;;;;5093779;28;20016;-74
2022/12/29 03:39:12;;;;;;;23.98;13.35;;;;;;;;;;5094131;28;20024;-75
2022/12/29 03:41:59;;;;;;;23.88;13.40;;;;;;;;;;5094727;28;20020;-75
2022/12/29 03:44:45;;;;;;;23.60;12.68;;;;;;;;;;5093961;28;20032;-74
2022/12/29 03:47:31;;;;;;;21.48;13.63;;;;;;;;;;5093762;28;20106;-74
2022/12/29 03:50:16;;;;;;;29.15;14.80;;;;;;;;;;5078829;28;20028;-76
2022/12/29 03:53:02;;;;;;;22.02;13.35;;;;;;;;;;5078985;28;20035;-75
2022/12/29 03:55:48;;;;;;;21.70;13.35;;;;;;;;;;5093746;28;20024;-74
2022/12/29 03:58:34;;;;;;;26.98;14.38;;;;;;;;;;5078759;28;20059;-74
2022/12/29 04:01:19;;;;;;;25.33;14.93;;;;;;;;;;5093399;28;20048;-73
2022/12/29 04:04:05;;;;;;;23.40;13.77;;;;;;;;;;5093133;28;20048;-74
2022/12/29 04:06:50;;;;;;;31.98;15.15;;;;;;;;;;5093127;28;20104;-75
2022/12/29 04:09:36;;;;;;;25.75;14.48;;;;;;;;;;5093164;28;20381;-74
2022/12/29 04:12:22;;;;;;;25.50;14.45;;;;;;;;;;5093089;28;20012;-74
2022/12/29 04:15:08;;;;;;;25.50;14.50;;;;;;;;;;5093752;28;20020;-74
2022/12/29 04:17:53;;;;;;;28.85;15.75;;;;;;;;;;5094634;28;20042;-74
2022/12/29 04:23:43;;;;;;;27.33;14.88;;;;;;;;;;5093740;28;20051;-75
2022/12/29 04:26:29;;;;;;;28.85;15.13;;;;;;;;;;5093658;28;20016;-74
2022/12/29 04:29:14;;;;;;;29.15;15.73;;;;;;;;;;5093218;28;20024;-74
2022/12/29 04:32:00;;;;;;;37.05;21.50;;;;;;;;;;5093086;28;20028;-75
2022/12/29 04:34:45;;;;;;;31.50;17.15;;;;;;;;;;5094199;28;20415;-74
2022/12/29 04:37:31;;;;;;;27.33;15.13;;;;;;;;;;5093500;28;20020;-74
2022/12/29 04:40:17;;;;;;;21.88;13.50;;;;;;;;;;5093259;28;20104;-74
2022/12/29 04:43:02;;;;;;;22.55;13.13;;;;;;;;;;5092851;28;20020;-75
2022/12/29 04:45:48;;;;;;;21.02;12.30;;;;;;;;;;5092912;28;20047;-75
2022/12/29 04:48:33;;;;;;;26.40;13.13;;;;;;;;;;5092508;28;20027;-75
2022/12/29 04:51:19;;;;;;;26.40;14.13;;;;;;;;;;5094913;28;20016;-74
2022/12/29 04:54:05;;;;;;;26.27;16.23;;;;;;;;;;5082634;28;20028;-73
2022/12/29 04:56:50;;;;;;;33.30;19.00;;;;;;;;;;5097027;28;20395;-74
2022/12/29 04:59:36;;;;;;;64.20;39.55;;;;;;;;;;5081519;28;20031;-74
2022/12/29 05:02:22;;;;;;;60.30;38.80;;;;;;;;;;5097110;28;20131;-74
2022/12/29 05:05:07;;;;;;;61.40;36.85;;;;;;;;;;5097087;28;20102;-75
2022/12/29 05:07:53;;;;;;;53.17;30.48;;;;;;;;;;5097313;28;20055;-74
2022/12/29 05:10:39;;;;;;;57.17;29.13;;;;;;;;;;5081822;28;20020;-75
2022/12/29 05:13:24;;;;;;;46.80;25.33;;;;;;;;;;5096910;28;20024;-74
2022/12/29 05:16:10;;;;;;;42.30;23.52;;;;;;;;;;5096843;28;20093;-74
2022/12/29 05:18:55;;;;;;;42.45;23.90;;;;;;;;;;5096408;28;20091;-74
2022/12/29 05:21:41;;;;;;;42.65;22.52;;;;;;;;;;5096513;28;20466;-74
2022/12/29 05:24:26;;;;;;;41.58;23.42;;;;;;;;;;5081201;28;20028;-75
2022/12/29 05:27:12;;;;;;;41.08;23.08;;;;;;;;;;5081426;28;20039;-75
2022/12/29 05:29:58;;;;;;;37.83;22.85;;;;;;;;;;5096180;28;20012;-73
2022/12/29 05:32:43;;;;;;;38.05;21.88;;;;;;;;;;5081976;28;20358;-75
2022/12/29 05:35:29;;;;;;;35.90;20.95;;;;;;;;;;5097135;28;20034;-74
2022/12/29 05:38:14;;;;;;;35.00;20.85;;;;;;;;;;5081147;28;20024;-75
2022/12/29 05:41:00;;;;;;;39.67;21.60;;;;;;;;;;5096201;28;20446;-75
2022/12/29 05:43:46;;;;;;;52.63;29.27;;;;;;;;;;5097330;28;20096;-76
2022/12/29 05:46:31;;;;;;;94.22;45.33;;;;;;;;;;5097250;28;20043;-75
2022/12/29 05:49:17;;;;;;;77.47;40.17;;;;;;;;;;5096707;28;20146;-76
2022/12/29 05:52:03;;;;;;;72.22;36.58;;;;;;;;;;5095478;28;20016;-74
2022/12/29 05:54:48;;;;;;;58.80;32.35;;;;;;;;;;5096529;28;20023;-76
2022/12/29 05:57:34;;;;;;;68.32;37.15;;;;;;;;;;5095821;28;20104;-76
2022/12/29 06:00:19;;;;;;;59.47;32.85;;;;;;;;;;5096068;28;20013;-75
2022/12/29 06:03:05;;;;;;;61.88;33.60;;;;;;;;;;5094933;28;20442;-74
2022/12/29 06:05:51;;;;;;;58.05;34.60;;;;;;;;;;5096342;28;20020;-76
2022/12/29 06:08:36;;;;;;;58.80;33.05;;;;;;;;;;5096484;28;20166;-75
2022/12/29 06:11:22;;;;;;;57.42;34.08;;;;;;;;;;5080572;28;20035;-74
2022/12/29 06:14:07;;;;;;;48.60;27.70;;;;;;;;;;5095330;28;20024;-75
2022/12/29 06:16:53;;;;;;;56.10;28.88;;;;;;;;;;5094707;28;20032;-75
2022/12/29 06:19:39;;;;;;;58.83;27.80;;;;;;;;;;5095717;28;20047;-75
2022/12/29 06:22:24;;;;;;;55.65;28.40;;;;;;;;;;5095279;28;20454;-75
2022/12/29 06:25:10;;;;;;;50.60;27.35;;;;;;;;;;5095601;28;20038;-73
2022/12/29 06:27:55;;;;;;;50.85;28.02;;;;;;;;;;5095122;28;20016;-75
2022/12/29 06:30:42;;;;;;;54.08;27.88;;;;;;;;;;5094976;28;20023;-74
2022/12/29 06:33:28;;;;;;;43.05;25.42;;;;;;;;;;5096378;28;20103;-74
2022/12/29 06:36:14;;;;;;;46.78;26.52;;;;;;;;;;5095450;28;20027;-74
2022/12/29 06:39:00;;;;;;;48.25;27.17;;;;;;;;;;5095373;28;20020;-75
2022/12/29 06:41:45;;;;;;;45.30;24.70;;;;;;;;;;5094938;28;20465;-74
2022/12/29 06:44:31;;;;;;;41.95;24.02;;;;;;;;;;5095704;28;20046;-75
2022/12/29 06:47:16;;;;;;;47.95;24.50;;;;;;;;;;5098172;28;20020;-73
2022/12/29 06:50:02;;;;;;;41.20;22.35;;;;;;;;;;5116438;28;20016;-75
2022/12/29 06:52:48;;;;;;;34.83;21.60;;;;;;;;;;5107132;28;20031;-75
2022/12/29 06:55:33;;;;;;;37.90;21.35;;;;;;;;;;5106817;28;20049;-75
2022/12/29 06:58:19;;;;;;;34.15;18.00;;;;;;;;;;5106055;28;20017;-75
2022/12/29 07:01:05;;;;;;;29.23;18.42;;;;;;;;;;5100841;28;20048;-75
2022/12/29 07:03:50;;;;;;;34.25;19.17;;;;;;;;;;5096341;28;20028;-76
2022/12/29 07:06:36;;;;;;;35.53;19.73;;;;;;;;;;5093935;28;20024;-73
2022/12/29 07:09:22;;;;;;;34.20;18.35;;;;;;;;;;5112171;28;20365;-74
2022/12/29 07:12:07;;;;;;;32.67;18.30;;;;;;;;;;5097625;28;20469;-75
2022/12/29 07:14:53;;;;;;;33.13;19.05;;;;;;;;;;5087651;28;20039;-76
2022/12/29 07:17:38;;;;;;;30.42;16.48;;;;;;;;;;5113078;28;20049;-73
2022/12/29 07:20:24;;;;;;;28.83;16.88;;;;;;;;;;5110855;28;20461;-73
2022/12/29 07:23:10;;;;;;;30.33;17.50;;;;;;;;;;5113261;28;20086;-74
2022/12/29 07:26:03;;;;;;;30.48;17.38;;;;;;;;;;5113834;28;20047;-73
2022/12/29 07:28:48;;;;;;;29.02;17.00;;;;;;;;;;5108551;28;20028;-75
2022/12/29 07:31:34;;;;;;;26.08;15.65;;;;;;;;;;5112263;28;20016;-74
2022/12/29 07:34:20;;;;;;;24.52;14.68;;;;;;;;;;5101452;28;20012;-74
2022/12/29 07:37:06;;;;;;;27.40;15.20;;;;;;;;;;5101714;28;20036;-74
2022/12/29 07:39:51;;;;;;;26.33;15.55;;;;;;;;;;5101654;28;20014;-75
2022/12/29 07:42:37;;;;;;;27.92;16.20;;;;;;;;;;5086630;28;20019;-77
2022/12/29 07:45:22;;;;;;;24.45;14.55;;;;;;;;;;5096178;28;20020;-75
2022/12/29 07:48:08;;;;;;;25.13;14.98;;;;;;;;;;5095894;28;20047;-75
2022/12/29 07:50:53;;;;;;;26.00;15.02;;;;;;;;;;5096444;28;20020;-75
2022/12/29 07:53:39;;;;;;;22.80;13.80;;;;;;;;;;5096379;28;20050;-75
2022/12/29 07:56:25;;;;;;;25.80;14.43;;;;;;;;;;5099028;28;20042;-77
2022/12/29 07:59:11;;;;;;;29.15;14.38;;;;;;;;;;5094322;28;20019;-75
2022/12/29 08:01:57;;;;;;;24.75;15.07;;;;;;;;;;5101089;28;20040;-75
2022/12/29 08:04:43;;;;;;;25.85;14.80;;;;;;;;;;5099658;28;20019;-74
2022/12/29 08:07:28;;;;;;;22.75;14.13;;;;;;;;;;5112320;28;20454;-74
2022/12/29 08:10:14;;;;;;;26.15;14.27;;;;;;;;;;5099397;28;20034;-75
2022/12/29 08:13:00;;;;;;;25.58;14.50;;;;;;;;;;5092356;28;20325;-74
2022/12/29 08:15:45;;;;;;;24.67;15.27;;;;;;;;;;5098911;28;20024;-76
2022/12/29 08:18:31;;;;;;;30.58;16.25;;;;;;;;;;5094641;28;20105;-75
2022/12/29 08:21:16;;;;;;;32.05;16.73;;;;;;;;;;5093853;28;20024;-75
2022/12/29 08:24:02;;;;;;;30.40;17.25;;;;;;;;;;5094318;28;20486;-75
2022/12/29 08:26:48;;;;;;;27.77;17.27;;;;;;;;;;5078695;28;20024;-75
2022/12/29 08:29:33;;;;;;;26.95;16.80;;;;;;;;;;5093020;28;20067;-75
2022/12/29 08:32:19;;;;;;;27.70;17.17;;;;;;;;;;5092790;28;20021;-75
2022/12/29 08:35:04;;;;;;;23.95;15.68;;;;;;;;;;5079576;28;20085;-74
2022/12/29 08:37:50;;;;;;;24.20;15.15;;;;;;;;;;5080076;28;20016;-75
2022/12/29 08:40:36;;;;;;;26.83;17.02;;;;;;;;;;5079601;28;20024;-75
2022/12/29 08:43:21;;;;;;;29.92;19.30;;;;;;;;;;5079782;28;20024;-75
2022/12/29 08:46:07;;;;;;;28.63;17.55;;;;;;;;;;5079208;28;20474;-75
2022/12/29 08:48:53;;;;;;;32.88;18.20;;;;;;;;;;5079242;28;20043;-76
2022/12/29 08:51:39;;;;;;;26.05;15.95;;;;;;;;;;5094162;28;20020;-76
2022/12/29 08:54:24;;;;;;;29.55;17.08;;;;;;;;;;5093261;28;20104;-76
2022/12/29 08:57:10;;;;;;;29.45;16.58;;;;;;;;;;5093040;28;20020;-74
2022/12/29 08:59:56;;;;;;;28.23;15.38;;;;;;;;;;5093140;28;20031;-75
2022/12/29 09:02:41;;;;;;;26.55;14.68;;;;;;;;;;5093185;28;20059;-75
2022/12/29 09:05:27;;;;;;;23.95;14.10;;;;;;;;;;5093435;28;20073;-74
2022/12/29 09:08:12;;;;;;;22.88;12.75;;;;;;;;;;5093184;28;20038;-76
2022/12/29 09:11:15;;;;;;;21.45;13.43;;;;;;;;;;5078336;28;20036;-74
2022/12/29 09:14:01;;;;;;;26.88;14.55;;;;;;;;;;5093010;28;20031;-75
2022/12/29 09:19:51;;;;;;;22.90;13.88;;;;;;;;;;5094463;28;20076;-75
2022/12/29 09:22:37;;;;;;;25.02;16.00;;;;;;;;;;5094386;28;20074;-75
2022/12/29 09:25:24;;;;;;;28.65;16.95;;;;;;;;;;5093080;28;20461;-75
2022/12/29 09:28:09;;;;;;;27.80;18.23;;;;;;;;;;5095842;28;20024;-76
2022/12/29 09:30:55;;;;;;;32.97;20.15;;;;;;;;;;5093422;28;20028;-74
2022/12/29 09:33:41;;;;;;;32.03;19.70;;;;;;;;;;5093136;28;20112;-75
2022/12/29 09:36:27;;;;;;;34.20;20.17;;;;;;;;;;5092846;28;20024;-75
2022/12/29 09:39:12;;;;;;;32.72;19.38;;;;;;;;;;5096858;28;20121;-76
2022/12/29 09:42:13;;;;;;;36.72;20.75;;;;;;;;;;5096644;28;20016;-75
2022/12/29 09:45:14;;;;;;;35.35;19.20;;;;;;;;;;5097115;28;20024;-75
2022/12/29 09:47:59;;;;;;;35.67;19.33;;;;;;;;;;5096652;28;20028;-75
2022/12/29 09:50:51;;;;;;;32.20;19.42;;;;;;;;;;5083232;28;20024;-75
2022/12/29 09:53:42;;;;;;;30.20;17.58;;;;;;;;;;5096578;28;20073;-74
2022/12/29 09:56:27;;;;;;;29.88;17.83;;;;;;;;;;5096209;28;20089;-75
2022/12/29 09:59:21;;;;;;;27.33;17.05;;;;;;;;;;5081250;28;20031;-76
2022/12/29 10:02:22;;;;;;;29.90;17.60;;;;;;;;;;5096153;28;20430;-75
2022/12/29 10:05:20;;;;;;;30.70;17.45;;;;;;;;;;5081027;28;20020;-75
2022/12/29 10:08:14;;;;;;;26.88;15.65;;;;;;;;;;5096683;28;20032;-75
2022/12/29 10:11:10;;;;;;;26.58;16.92;;;;;;;;;;5095187;28;20020;-75
2022/12/29 10:14:14;;;;;;;28.20;17.00;;;;;;;;;;5096719;28;20027;-76
2022/12/29 10:17:16;;;;;;;26.75;17.05;;;;;;;;;;5081248;28;20339;-75
2022/12/29 10:20:17;;;;;;;25.70;15.32;;;;;;;;;;5081346;28;20028;-74
2022/12/29 10:23:21;;;;;;;27.55;15.68;;;;;;;;;;5096011;28;20372;-75
2022/12/29 10:26:11;;;;;;;27.83;16.08;;;;;;;;;;5096789;28;20016;-75
2022/12/29 10:29:03;;;;;;;27.00;15.65;;;;;;;;;;5080666;28;20027;-75
2022/12/29 10:31:59;;;;;;;30.50;15.88;;;;;;;;;;5095665;28;20087;-74
2022/12/29 10:34:47;;;;;;;24.42;15.27;;;;;;;;;;5096214;28;20020;-77
2022/12/29 10:37:45;;;;;;;28.25;16.52;;;;;;;;;;5095549;28;20012;-75
2022/12/29 10:40:33;;;;;;;35.63;20.38;;;;;;;;;;5095612;28;20077;-74
2022/12/29 10:43:22;;;;;;;28.48;16.02;;;;;;;;;;5080108;28;20016;-76
2022/12/29 10:46:10;;;;;;;27.98;16.45;;;;;;;;;;5095021;28;20024;-75
2022/12/29 10:48:56;;;;;;;30.27;18.55;;;;;;;;;;5094597;28;20048;-75
2022/12/29 10:51:43;;;;;;;31.65;18.05;;;;;;;;;;5094755;28;20016;-74
2022/12/29 10:54:32;;;;;;;27.23;17.55;;;;;;;;;;5095789;28;20027;-75
2022/12/29 10:57:26;;;;;;;29.38;17.40;;;;;;;;;;5095438;28;20072;-75
2022/12/29 11:00:21;;;;;;;29.13;17.30;;;;;;;;;;5097621;28;20020;-76
2022/12/29 11:03:18;;;;;;;24.73;15.85;;;;;;;;;;5082190;28;20470;-75
2022/12/29 11:06:13;;;;;;;24.95;15.60;;;;;;;;;;5095121;28;20101;-74
2022/12/29 11:09:09;;;;;;;27.35;17.05;;;;;;;;;;5079683;28;20114;-76
2022/12/29 11:11:55;;;;;;;32.38;16.38;;;;;;;;;;5096848;28;20016;-73
2022/12/29 11:14:41;;;;;;;25.45;15.88;;;;;;;;;;5109381;28;20046;-74
2022/12/29 11:17:27;;;;;;;33.75;16.98;;;;;;;;;;5099155;28;20018;-74
2022/12/29 11:20:39;;;;;;;28.23;17.17;;;;;;;;;;5095779;28;20089;-76
2022/12/29 11:23:32;;;;;;;32.05;17.27;;;;;;;;;;5095298;28;20472;-75
2022/12/29 11:26:22;;;;;;;28.25;17.13;;;;;;;;;;5094188;28;20107;-76
2022/12/29 11:29:07;;;;;;;30.23;18.13;;;;;;;;;;5094517;28;20125;-73
2022/12/29 11:31:58;;;;;;;33.20;18.55;;;;;;;;;;5079431;28;20012;-75
2022/12/29 11:34:44;;;;;;;30.33;17.67;;;;;;;;;;5095154;28;20034;-76
2022/12/29 11:37:34;;;;;;;34.72;19.08;;;;;;;;;;5095514;28;20027;-75
2022/12/29 11:40:20;;;;;;;31.10;19.13;;;;;;;;;;5094213;28;20081;-75
2022/12/29 11:43:12;;;;;;;29.40;18.50;;;;;;;;;;5095095;28;20039;-75
2022/12/29 11:45:57;;;;;;;33.60;18.75;;;;;;;;;;5079836;28;20073;-75
2022/12/29 11:48:43;;;;;;;29.33;18.23;;;;;;;;;;5094143;28;20536;-74
2022/12/29 11:51:30;;;;;;;27.98;18.10;;;;;;;;;;5080061;28;20366;-74
2022/12/29 11:54:22;;;;;;;27.80;17.73;;;;;;;;;;5093837;28;20031;-74
2022/12/29 11:57:18;;;;;;;29.15;18.00;;;;;;;;;;5095387;28;20357;-74
2022/12/29 12:00:14;;;;;;;28.30;18.17;;;;;;;;;;5094323;28;20093;-74
2022/12/29 12:03:03;;;;;;;26.65;16.15;;;;;;;;;;5074656;28;20050;-76
2022/12/29 12:05:53;;;;;;;27.25;16.80;;;;;;;;;;5074424;28;20024;-74
2022/12/29 12:08:48;;;;;;;27.85;16.25;;;;;;;;;;5059389;28;20119;-75
2022/12/29 12:11:37;;;;;;;28.40;16.67;;;;;;;;;;5073212;28;20025;-75
2022/12/29 12:14:30;;;;;;;26.30;15.45;;;;;;;;;;5073404;28;20048;-76
2022/12/29 12:17:17;;;;;;;28.00;17.40;;;;;;;;;;5073297;28;20015;-76
2022/12/29 12:20:03;;;;;;;23.65;15.43;;;;;;;;;;5073262;28;20052;-75
2022/12/29 12:22:55;;;;;;;24.13;15.93;;;;;;;;;;5059477;28;20017;-75
2022/12/29 12:25:45;;;;;;;23.05;15.80;;;;;;;;;;5058440;28;20034;-76
2022/12/29 12:28:36;;;;;;;25.45;16.38;;;;;;;;;;5074215;28;20065;-75
2022/12/29 12:31:42;;;;;;;21.95;15.07;;;;;;;;;;5073247;28;20047;-74
2022/12/29 12:34:39;;;;;;;24.73;16.05;;;;;;;;;;5073788;28;20113;-76
2022/12/29 12:37:24;;;;;;;22.88;15.23;;;;;;;;;;5073551;28;20018;-75
2022/12/29 12:40:16;;;;;;;22.13;15.20;;;;;;;;;;5073511;28;20046;-75
2022/12/29 12:43:24;;;;;;;29.92;17.20;;;;;;;;;;5073061;28;20021;-75
2022/12/29 12:46:32;;;;;;;25.95;16.10;;;;;;;;;;5073193;28;20025;-76
2022/12/29 12:49:24;;;;;;;25.13;16.27;;;;;;;;;;5073254;28;20070;-74
2022/12/29 12:52:28;;;;;;;23.35;14.63;;;;;;;;;;5072907;28;20074;-76
2022/12/29 12:55:20;;;;;;;23.38;15.63;;;;;;;;;;5073338;28;20021;-75
2022/12/29 12:58:26;;;;;;;26.10;14.73;;;;;;;;;;5073976;28;20028;-74
2022/12/29 13:01:15;;;;;;;22.13;14.23;;;;;;;;;;5076151;28;20119;-75
2022/12/29 13:04:00;;;;;;;21.70;14.48;;;;;;;;;;5078206;28;20107;-75
2022/12/29 13:07:05;;;;;;;22.15;14.50;;;;;;;;;;5079913;28;20020;-75
2022/12/29 13:09:59;;;;;;;23.85;14.73;;;;;;;;;;5093183;28;20031;-76
2022/12/29 13:12:52;;;;;;;19.63;13.55;;;;;;;;;;5095636;28;20016;-75
2022/12/29 13:15:52;;;;;;;25.27;13.73;;;;;;;;;;5101491;28;20049;-75
2022/12/29 13:18:44;;;;;;;22.85;13.90;;;;;;;;;;5082817;28;20032;-75
2022/12/29 13:21:49;;;;;;;20.70;13.57;;;;;;;;;;5086451;28;20012;-74
2022/12/29 13:24:43;;;;;;;23.55;14.18;;;;;;;;;;5097235;28;20020;-75
2022/12/29 13:27:32;;;;;;;23.23;14.15;;;;;;;;;;5097642;28;20035;-75
2022/12/29 13:30:21;;;;;;;22.40;13.95;;;;;;;;;;5082420;28;20063;-73
2022/12/29 13:33:25;;;;;;;24.55;14.15;;;;;;;;;;5097169;28;20020;-74
2022/12/29 13:36:21;;;;;;;32.45;15.43;;;;;;;;;;5097106;28;20031;-74
2022/12/29 13:39:13;;;;;;;34.63;16.73;;;;;;;;;;5096754;28;20106;-75
2022/12/29 13:41:59;;;;;;;22.30;14.25;;;;;;;;;;5102869;28;20095;-76
2022/12/29 13:44:54;;;;;;;23.92;14.60;;;;;;;;;;5083289;28;20108;-75
2022/12/29 13:47:42;;;;;;;24.27;14.27;;;;;;;;;;5096269;28;20024;-74
2022/12/29 13:50:29;;;;;;;30.55;15.63;;;;;;;;;;5082845;28;20016;-75
2022/12/29 13:53:19;;;;;;;23.95;14.50;;;;;;;;;;5096671;28;20016;-74
2022/12/29 13:56:24;;;;;;;22.38;13.82;;;;;;;;;;5083872;28;20430;-74
2022/12/29 13:59:09;;;;;;;22.13;13.80;;;;;;;;;;5096693;28;20099;-75
2022/12/29 14:01:55;;;;;;;20.30;13.27;;;;;;;;;;5095857;28;20091;-74
2022/12/29 14:04:55;;;;;;;21.73;13.57;;;;;;;;;;5081802;28;20437;-75
2022/12/29 14:07:40;;;;;;;24.17;14.15;;;;;;;;;;5082871;28;20024;-74
2022/12/29 14:10:35;;;;;;;20.33;13.18;;;;;;;;;;5095741;28;20020;-75
2022/12/29 14:13:21;;;;;;;20.02;12.13;;;;;;;;;;5096396;28;20017;-74
2022/12/29 14:16:08;;;;;;;22.30;12.95;;;;;;;;;;5082077;28;20124;-74
2022/12/29 14:18:57;;;;;;;20.02;12.13;;;;;;;;;;5096247;28;20024;-74
2022/12/29 14:21:51;;;;;;;24.25;13.10;;;;;;;;;;5081162;28;20082;-75
2022/12/29 14:24:39;;;;;;;22.98;12.48;;;;;;;;;;5094275;28;20023;-74
2022/12/29 14:27:28;;;;;;;24.60;13.32;;;;;;;;;;5095382;28;20027;-75
2022/12/29 14:30:32;;;;;;;24.70;12.55;;;;;;;;;;5095268;28;20024;-75
2022/12/29 14:33:18;;;;;;;22.45;13.02;;;;;;;;;;5095530;28;20031;-75
2022/12/29 14:36:30;;;;;;;24.85;12.48;;;;;;;;;;5081426;28;20048;-75
2022/12/29 14:39:24;;;;;;;22.67;12.55;;;;;;;;;;5095487;28;20024;-74
2022/12/29 14:42:13;;;;;;;24.25;13.70;;;;;;;;;;5095315;28;20044;-74
2022/12/29 14:45:04;;;;;;;21.58;13.38;;;;;;;;;;5081690;28;20016;-75
2022/12/29 14:47:51;;;;;;;23.02;13.50;;;;;;;;;;5095133;28;20089;-75
2022/12/29 14:50:41;;;;;;;24.17;13.13;;;;;;;;;;5094783;28;20035;-76
2022/12/29 14:53:43;;;;;;;38.50;16.67;;;;;;;;;;5094440;28;20143;-74
2022/12/29 14:56:31;;;;;;;29.10;16.02;;;;;;;;;;5094771;28;20072;-75
2022/12/29 14:59:17;;;;;;;35.97;16.45;;;;;;;;;;5095158;28;20446;-75
2022/12/29 15:02:11;;;;;;;34.72;15.70;;;;;;;;;;5094191;28;20221;-75
2022/12/29 15:04:59;;;;;;;29.27;16.63;;;;;;;;;;5081213;28;20280;-73
2022/12/29 15:07:44;;;;;;;32.47;17.05;;;;;;;;;;5095639;28;20141;-73
2022/12/29 15:10:42;;;;;;;31.15;17.73;;;;;;;;;;5079130;28;20024;-73
2022/12/29 15:13:36;;;;;;;42.75;20.67;;;;;;;;;;5094014;28;20027;-75
2022/12/29 15:16:21;;;;;;;38.90;20.67;;;;;;;;;;5094871;28;20112;-74
2022/12/29 15:19:20;;;;;;;34.70;19.23;;;;;;;;;;5094529;28;20020;-74
2022/12/29 15:22:06;;;;;;;38.97;20.20;;;;;;;;;;5080449;28;20020;-74
2022/12/29 15:24:52;;;;;;;38.63;20.80;;;;;;;;;;5094652;28;20234;-75
2022/12/29 15:27:40;;;;;;;38.22;20.25;;;;;;;;;;5080428;28;20028;-74
2022/12/29 15:30:25;;;;;;;44.00;22.67;;;;;;;;;;5079573;28;20024;-75
2022/12/29 15:33:18;;;;;;;38.58;21.83;;;;;;;;;;5094177;28;20457;-73
2022/12/29 15:36:10;;;;;;;39.28;21.50;;;;;;;;;;5080108;28;20361;-75
2022/12/29 15:38:56;;;;;;;44.33;23.33;;;;;;;;;;5094734;28;20032;-74
2022/12/29 15:42:01;;;;;;;45.55;22.45;;;;;;;;;;5080004;28;20016;-75
2022/12/29 15:44:46;;;;;;;42.38;23.70;;;;;;;;;;5094149;28;20028;-75
2022/12/29 15:47:33;;;;;;;47.92;25.08;;;;;;;;;;5094524;28;20020;-74
2022/12/29 15:50:23;;;;;;;46.47;24.80;;;;;;;;;;5094776;28;20023;-74
2022/12/29 15:53:11;;;;;;;47.67;27.52;;;;;;;;;;5093986;28;20073;-75
2022/12/29 15:55:58;;;;;;;51.53;27.10;;;;;;;;;;5093938;28;20016;-74
2022/12/29 15:58:46;;;;;;;47.47;27.05;;;;;;;;;;5079225;28;20048;-75
2022/12/29 16:01:33;;;;;;;51.83;26.98;;;;;;;;;;5093790;28;20040;-75
2022/12/29 16:04:19;;;;;;;46.92;27.45;;;;;;;;;;5094760;28;20099;-75
2022/12/29 16:07:06;;;;;;;53.38;28.77;;;;;;;;;;5093925;28;20012;-74
2022/12/29 16:09:59;;;;;;;46.58;27.15;;;;;;;;;;5094017;28;20489;-73
2022/12/29 16:12:44;;;;;;;43.03;26.00;;;;;;;;;;5094001;28;20067;-75
2022/12/29 16:15:30;;;;;;;39.75;25.00;;;;;;;;;;5094773;28;20396;-75
2022/12/29 16:18:21;;;;;;;49.40;26.40;;;;;;;;;;5093212;28;20392;-75
2022/12/29 16:21:16;;;;;;;58.92;33.13;;;;;;;;;;5078503;28;20082;-75
2022/12/29 16:24:05;;;;;;;50.75;29.33;;;;;;;;;;5080139;28;20438;-76
2022/12/29 16:26:58;;;;;;;61.20;35.03;;;;;;;;;;5093570;28;20119;-77
2022/12/29 16:29:43;;;;;;;61.63;35.63;;;;;;;;;;5093226;28;20028;-74
2022/12/29 16:32:31;;;;;;;62.78;34.25;;;;;;;;;;5092666;28;20407;-74
2022/12/29 16:35:21;;;;;;;65.40;37.13;;;;;;;;;;5093173;28;20473;-75
2022/12/29 16:38:06;;;;;;;67.78;38.65;;;;;;;;;;5094006;28;20016;-75
2022/12/29 16:40:56;;;;;;;81.18;42.10;;;;;;;;;;5093608;28;20036;-75
2022/12/29 16:43:42;;;;;;;77.70;43.08;;;;;;;;;;5080723;28;20031;-75
2022/12/29 16:46:29;;;;;;;81.70;45.17;;;;;;;;;;5079474;28;20089;-74
2022/12/29 16:49:16;;;;;;;81.63;45.33;;;;;;;;;;5083187;28;20051;-75
2022/12/29 16:52:11;;;;;;;82.88;44.28;;;;;;;;;;5097757;28;20094;-76
2022/12/29 16:55:00;;;;;;;82.68;45.60;;;;;;;;;;5098154;28;20024;-76
2022/12/29 16:57:47;;;;;;;76.60;43.03;;;;;;;;;;5097904;28;20024;-76